sensor_id;sensor_type;location;lat;lon;timestamp;P1;durP1;ratioP1;P2;durP2;ratioP2
76290;SDS011;65100;46.884;17.410;2023-03-01T00:01:08;23.92;;;11.25;;
76290;SDS011;65100;46.884;17.410;2023-03-01T00:03:36;23.05;;;11.48;;
76290;SDS011;65100;46.884;17.410;2023-03-01T00:06:02;22.20;;;10.70;;
76290;SDS011;65100;46.884;17.410;2023-03-01T00:08:29;20.75;;;9.45;;
76290;SDS011;65100;46.884;17.410;2023-03-01T00:13:42;22.42;;;10.02;;
76290;SDS011;65100;46.884;17.410;2023-03-01T00:16:33;23.90;;;11.10;;
76290;SDS011;65100;46.884;17.410;2023-03-01T00:19:00;23.50;;;10.83;;
76290;SDS011;65100;46.884;17.410;2023-03-01T00:21:26;22.27;;;10.40;;
76290;SDS011;65100;46.884;17.410;2023-03-01T00:23:52;25.20;;;11.80;;
76290;SDS011;65100;46.884;17.410;2023-03-01T00:26:19;23.40;;;11.52;;
76290;SDS011;65100;46.884;17.410;2023-03-01T00:28:45;24.57;;;10.37;;
76290;SDS011;65100;46.884;17.410;2023-03-01T00:31:12;26.90;;;11.65;;
76290;SDS011;65100;46.884;17.410;2023-03-01T00:33:40;26.77;;;12.68;;
76290;SDS011;65100;46.884;17.410;2023-03-01T00:36:07;26.13;;;11.60;;
76290;SDS011;65100;46.884;17.410;2023-03-01T00:38:36;24.95;;;11.68;;
76290;SDS011;65100;46.884;17.410;2023-03-01T00:41:04;24.70;;;11.03;;
76290;SDS011;65100;46.884;17.410;2023-03-01T00:43:31;26.40;;;11.98;;
76290;SDS011;65100;46.884;17.410;2023-03-01T00:46:01;24.20;;;11.50;;
76290;SDS011;65100;46.884;17.410;2023-03-01T00:48:28;24.00;;;11.57;;
76290;SDS011;65100;46.884;17.410;2023-03-01T00:50:54;27.70;;;12.30;;
76290;SDS011;65100;46.884;17.410;2023-03-01T00:53:19;28.10;;;11.67;;
76290;SDS011;65100;46.884;17.410;2023-03-01T00:55:44;26.07;;;12.00;;
76290;SDS011;65100;46.884;17.410;2023-03-01T00:58:10;27.23;;;12.47;;
76290;SDS011;65100;46.884;17.410;2023-03-01T01:00:35;26.63;;;11.87;;
76290;SDS011;65100;46.884;17.410;2023-03-01T01:03:01;25.05;;;11.68;;
76290;SDS011;65100;46.884;17.410;2023-03-01T01:05:26;24.50;;;11.43;;
76290;SDS011;65100;46.884;17.410;2023-03-01T01:07:52;25.07;;;12.13;;
76290;SDS011;65100;46.884;17.410;2023-03-01T01:10:17;26.03;;;11.13;;
76290;SDS011;65100;46.884;17.410;2023-03-01T01:12:46;24.27;;;11.55;;
76290;SDS011;65100;46.884;17.410;2023-03-01T01:15:12;25.55;;;11.98;;
76290;SDS011;65100;46.884;17.410;2023-03-01T01:17:39;25.23;;;11.40;;
76290;SDS011;65100;46.884;17.410;2023-03-01T01:20:05;24.05;;;11.32;;
76290;SDS011;65100;46.884;17.410;2023-03-01T01:22:32;23.73;;;10.80;;
76290;SDS011;65100;46.884;17.410;2023-03-01T01:24:57;24.83;;;10.67;;
76290;SDS011;65100;46.884;17.410;2023-03-01T01:27:23;22.38;;;11.10;;
76290;SDS011;65100;46.884;17.410;2023-03-01T01:29:48;23.10;;;10.23;;
76290;SDS011;65100;46.884;17.410;2023-03-01T01:32:14;23.23;;;10.37;;
76290;SDS011;65100;46.884;17.410;2023-03-01T01:34:39;24.67;;;10.93;;
76290;SDS011;65100;46.884;17.410;2023-03-01T01:37:05;21.58;;;9.68;;
76290;SDS011;65100;46.884;17.410;2023-03-01T01:39:33;24.27;;;11.48;;
76290;SDS011;65100;46.884;17.410;2023-03-01T01:41:59;21.87;;;9.67;;
76290;SDS011;65100;46.884;17.410;2023-03-01T01:44:26;24.67;;;10.50;;
76290;SDS011;65100;46.884;17.410;2023-03-01T01:46:54;23.20;;;10.68;;
76290;SDS011;65100;46.884;17.410;2023-03-01T01:52:22;24.08;;;10.27;;
76290;SDS011;65100;46.884;17.410;2023-03-01T01:54:59;23.73;;;11.03;;
76290;SDS011;65100;46.884;17.410;2023-03-01T01:58:04;25.23;;;10.90;;
76290;SDS011;65100;46.884;17.410;2023-03-01T02:00:26;24.33;;;10.60;;
76290;SDS011;65100;46.884;17.410;2023-03-01T02:02:57;22.98;;;10.50;;
76290;SDS011;65100;46.884;17.410;2023-03-01T02:08:13;23.40;;;10.80;;
76290;SDS011;65100;46.884;17.410;2023-03-01T02:10:41;24.38;;;11.32;;
76290;SDS011;65100;46.884;17.410;2023-03-01T02:13:07;22.77;;;10.30;;
76290;SDS011;65100;46.884;17.410;2023-03-01T02:15:33;27.48;;;11.98;;
76290;SDS011;65100;46.884;17.410;2023-03-01T02:18:00;30.67;;;11.85;;
76290;SDS011;65100;46.884;17.410;2023-03-01T02:23:14;29.15;;;11.55;;
76290;SDS011;65100;46.884;17.410;2023-03-01T02:25:47;27.02;;;12.07;;
76290;SDS011;65100;46.884;17.410;2023-03-01T02:28:31;30.48;;;12.63;;
76290;SDS011;65100;46.884;17.410;2023-03-01T02:30:59;40.83;;;12.73;;
76290;SDS011;65100;46.884;17.410;2023-03-01T02:33:45;31.33;;;11.27;;
76290;SDS011;65100;46.884;17.410;2023-03-01T02:36:12;33.05;;;12.32;;
76290;SDS011;65100;46.884;17.410;2023-03-01T02:38:44;28.83;;;11.85;;
76290;SDS011;65100;46.884;17.410;2023-03-01T02:41:12;25.10;;;10.10;;
76290;SDS011;65100;46.884;17.410;2023-03-01T02:43:39;25.92;;;10.45;;
76290;SDS011;65100;46.884;17.410;2023-03-01T02:46:07;26.95;;;11.48;;
76290;SDS011;65100;46.884;17.410;2023-03-01T02:48:45;25.87;;;11.10;;
76290;SDS011;65100;46.884;17.410;2023-03-01T02:56:35;27.83;;;11.68;;
76290;SDS011;65100;46.884;17.410;2023-03-01T02:59:01;30.07;;;12.57;;
76290;SDS011;65100;46.884;17.410;2023-03-01T03:01:28;29.08;;;13.02;;
76290;SDS011;65100;46.884;17.410;2023-03-01T03:04:02;26.70;;;12.13;;
76290;SDS011;65100;46.884;17.410;2023-03-01T03:06:32;27.98;;;11.63;;
76290;SDS011;65100;46.884;17.410;2023-03-01T03:08:57;28.60;;;11.80;;
76290;SDS011;65100;46.884;17.410;2023-03-01T03:11:23;28.02;;;12.05;;
76290;SDS011;65100;46.884;17.410;2023-03-01T03:13:49;27.03;;;11.87;;
76290;SDS011;65100;46.884;17.410;2023-03-01T03:16:14;28.17;;;12.00;;
76290;SDS011;65100;46.884;17.410;2023-03-01T03:18:40;27.30;;;11.33;;
76290;SDS011;65100;46.884;17.410;2023-03-01T03:21:09;28.05;;;12.60;;
76290;SDS011;65100;46.884;17.410;2023-03-01T03:23:36;27.90;;;12.20;;
76290;SDS011;65100;46.884;17.410;2023-03-01T03:26:03;30.30;;;12.13;;
76290;SDS011;65100;46.884;17.410;2023-03-01T03:28:33;27.85;;;11.88;;
76290;SDS011;65100;46.884;17.410;2023-03-01T03:30:59;28.80;;;12.13;;
76290;SDS011;65100;46.884;17.410;2023-03-01T03:33:31;28.90;;;12.57;;
76290;SDS011;65100;46.884;17.410;2023-03-01T03:35:57;26.60;;;11.40;;
76290;SDS011;65100;46.884;17.410;2023-03-01T03:38:22;30.40;;;12.02;;
76290;SDS011;65100;46.884;17.410;2023-03-01T03:40:49;27.90;;;12.43;;
76290;SDS011;65100;46.884;17.410;2023-03-01T03:43:17;27.88;;;11.85;;
76290;SDS011;65100;46.884;17.410;2023-03-01T03:45:45;26.98;;;10.63;;
76290;SDS011;65100;46.884;17.410;2023-03-01T03:48:12;26.93;;;11.23;;
76290;SDS011;65100;46.884;17.410;2023-03-01T03:50:38;26.80;;;11.32;;
76290;SDS011;65100;46.884;17.410;2023-03-01T03:53:08;26.35;;;11.55;;
76290;SDS011;65100;46.884;17.410;2023-03-01T03:55:36;30.63;;;11.82;;
76290;SDS011;65100;46.884;17.410;2023-03-01T03:58:04;26.73;;;11.40;;
76290;SDS011;65100;46.884;17.410;2023-03-01T04:00:38;29.20;;;11.07;;
76290;SDS011;65100;46.884;17.410;2023-03-01T04:03:05;28.52;;;11.60;;
76290;SDS011;65100;46.884;17.410;2023-03-01T04:05:32;29.70;;;12.60;;
76290;SDS011;65100;46.884;17.410;2023-03-01T04:07:57;33.63;;;12.83;;
76290;SDS011;65100;46.884;17.410;2023-03-01T04:10:30;31.17;;;12.50;;
76290;SDS011;65100;46.884;17.410;2023-03-01T04:12:57;31.83;;;12.75;;
76290;SDS011;65100;46.884;17.410;2023-03-01T04:15:23;33.20;;;12.95;;
76290;SDS011;65100;46.884;17.410;2023-03-01T04:17:51;28.80;;;12.07;;
76290;SDS011;65100;46.884;17.410;2023-03-01T04:20:18;27.70;;;12.03;;
76290;SDS011;65100;46.884;17.410;2023-03-01T04:23:12;30.63;;;12.88;;
76290;SDS011;65100;46.884;17.410;2023-03-01T04:28:19;26.75;;;10.98;;
76290;SDS011;65100;46.884;17.410;2023-03-01T04:30:56;25.75;;;11.75;;
76290;SDS011;65100;46.884;17.410;2023-03-01T04:33:23;27.73;;;10.73;;
76290;SDS011;65100;46.884;17.410;2023-03-01T04:35:50;26.45;;;11.50;;
76290;SDS011;65100;46.884;17.410;2023-03-01T04:38:16;28.77;;;12.90;;
76290;SDS011;65100;46.884;17.410;2023-03-01T04:40:46;28.77;;;12.25;;
76290;SDS011;65100;46.884;17.410;2023-03-01T04:43:12;27.33;;;11.70;;
76290;SDS011;65100;46.884;17.410;2023-03-01T04:45:40;28.77;;;12.27;;
76290;SDS011;65100;46.884;17.410;2023-03-01T04:48:06;26.43;;;11.40;;
76290;SDS011;65100;46.884;17.410;2023-03-01T04:50:32;25.35;;;11.05;;
76290;SDS011;65100;46.884;17.410;2023-03-01T04:52:57;29.63;;;11.60;;
76290;SDS011;65100;46.884;17.410;2023-03-01T04:55:26;25.98;;;11.50;;
76290;SDS011;65100;46.884;17.410;2023-03-01T04:57:52;25.03;;;10.83;;
76290;SDS011;65100;46.884;17.410;2023-03-01T05:00:19;34.17;;;15.93;;
76290;SDS011;65100;46.884;17.410;2023-03-01T05:03:06;31.17;;;15.35;;
76290;SDS011;65100;46.884;17.410;2023-03-01T05:05:31;29.10;;;12.80;;
76290;SDS011;65100;46.884;17.410;2023-03-01T05:07:59;30.60;;;13.18;;
76290;SDS011;65100;46.884;17.410;2023-03-01T05:10:28;33.10;;;12.83;;
76290;SDS011;65100;46.884;17.410;2023-03-01T05:12:55;30.05;;;12.95;;
76290;SDS011;65100;46.884;17.410;2023-03-01T05:15:22;32.40;;;13.32;;
76290;SDS011;65100;46.884;17.410;2023-03-01T05:17:50;32.00;;;13.70;;
76290;SDS011;65100;46.884;17.410;2023-03-01T05:20:17;31.70;;;14.30;;
76290;SDS011;65100;46.884;17.410;2023-03-01T05:22:47;36.20;;;15.83;;
76290;SDS011;65100;46.884;17.410;2023-03-01T05:25:13;31.83;;;13.82;;
76290;SDS011;65100;46.884;17.410;2023-03-01T05:27:39;34.70;;;13.80;;
76290;SDS011;65100;46.884;17.410;2023-03-01T05:30:04;33.53;;;13.02;;
76290;SDS011;65100;46.884;17.410;2023-03-01T05:32:38;34.90;;;14.70;;
76290;SDS011;65100;46.884;17.410;2023-03-01T05:35:11;37.40;;;14.60;;
76290;SDS011;65100;46.884;17.410;2023-03-01T05:37:44;32.47;;;14.37;;
76290;SDS011;65100;46.884;17.410;2023-03-01T05:40:11;32.95;;;13.63;;
76290;SDS011;65100;46.884;17.410;2023-03-01T05:42:42;33.90;;;14.10;;
76290;SDS011;65100;46.884;17.410;2023-03-01T05:45:11;34.75;;;13.50;;
76290;SDS011;65100;46.884;17.410;2023-03-01T05:47:41;38.90;;;15.02;;
76290;SDS011;65100;46.884;17.410;2023-03-01T05:50:30;33.47;;;14.93;;
76290;SDS011;65100;46.884;17.410;2023-03-01T05:52:57;35.03;;;15.15;;
76290;SDS011;65100;46.884;17.410;2023-03-01T05:55:25;37.03;;;14.30;;
76290;SDS011;65100;46.884;17.410;2023-03-01T05:57:51;35.55;;;14.27;;
76290;SDS011;65100;46.884;17.410;2023-03-01T06:00:17;37.53;;;15.27;;
76290;SDS011;65100;46.884;17.410;2023-03-01T06:02:44;40.10;;;15.82;;
76290;SDS011;65100;46.884;17.410;2023-03-01T06:05:10;39.13;;;14.80;;
76290;SDS011;65100;46.884;17.410;2023-03-01T06:07:37;39.85;;;16.88;;
76290;SDS011;65100;46.884;17.410;2023-03-01T06:10:03;39.75;;;16.00;;
76290;SDS011;65100;46.884;17.410;2023-03-01T06:12:35;44.40;;;18.90;;
76290;SDS011;65100;46.884;17.410;2023-03-01T06:15:02;42.40;;;17.10;;
76290;SDS011;65100;46.884;17.410;2023-03-01T06:17:29;41.28;;;16.50;;
76290;SDS011;65100;46.884;17.410;2023-03-01T06:19:56;39.45;;;16.20;;
76290;SDS011;65100;46.884;17.410;2023-03-01T06:22:22;42.83;;;19.60;;
76290;SDS011;65100;46.884;17.410;2023-03-01T06:24:47;37.30;;;15.23;;
76290;SDS011;65100;46.884;17.410;2023-03-01T06:27:13;42.85;;;17.30;;
76290;SDS011;65100;46.884;17.410;2023-03-01T06:29:38;45.17;;;17.17;;
76290;SDS011;65100;46.884;17.410;2023-03-01T06:32:04;37.47;;;15.73;;
76290;SDS011;65100;46.884;17.410;2023-03-01T06:34:29;39.45;;;14.85;;
76290;SDS011;65100;46.884;17.410;2023-03-01T06:36:55;39.57;;;15.13;;
76290;SDS011;65100;46.884;17.410;2023-03-01T06:39:20;36.70;;;14.53;;
76290;SDS011;65100;46.884;17.410;2023-03-01T06:41:46;38.33;;;15.73;;
76290;SDS011;65100;46.884;17.410;2023-03-01T06:44:11;38.53;;;15.70;;
76290;SDS011;65100;46.884;17.410;2023-03-01T06:46:38;37.17;;;15.23;;
76290;SDS011;65100;46.884;17.410;2023-03-01T06:49:04;32.50;;;14.38;;
76290;SDS011;65100;46.884;17.410;2023-03-01T06:51:32;42.13;;;15.98;;
76290;SDS011;65100;46.884;17.410;2023-03-01T06:53:58;38.07;;;15.70;;
76290;SDS011;65100;46.884;17.410;2023-03-01T06:56:23;36.95;;;14.57;;
76290;SDS011;65100;46.884;17.410;2023-03-01T06:58:49;33.80;;;13.03;;
76290;SDS011;65100;46.884;17.410;2023-03-01T07:01:14;37.77;;;14.57;;
76290;SDS011;65100;46.884;17.410;2023-03-01T07:03:40;41.85;;;15.15;;
76290;SDS011;65100;46.884;17.410;2023-03-01T07:06:05;40.17;;;15.00;;
76290;SDS011;65100;46.884;17.410;2023-03-01T07:08:31;37.40;;;14.87;;
76290;SDS011;65100;46.884;17.410;2023-03-01T07:10:58;36.10;;;15.15;;
76290;SDS011;65100;46.884;17.410;2023-03-01T07:13:24;38.87;;;15.80;;
76290;SDS011;65100;46.884;17.410;2023-03-01T07:15:50;36.15;;;15.15;;
76290;SDS011;65100;46.884;17.410;2023-03-01T07:18:15;35.13;;;14.10;;
76290;SDS011;65100;46.884;17.410;2023-03-01T07:20:41;36.53;;;14.60;;
76290;SDS011;65100;46.884;17.410;2023-03-01T07:23:06;41.43;;;14.23;;
76290;SDS011;65100;46.884;17.410;2023-03-01T07:25:32;35.67;;;14.65;;
76290;SDS011;65100;46.884;17.410;2023-03-01T07:27:58;37.60;;;14.77;;
76290;SDS011;65100;46.884;17.410;2023-03-01T07:30:23;32.45;;;13.50;;
76290;SDS011;65100;46.884;17.410;2023-03-01T07:32:52;36.83;;;14.53;;
76290;SDS011;65100;46.884;17.410;2023-03-01T07:35:18;33.58;;;14.38;;
76290;SDS011;65100;46.884;17.410;2023-03-01T07:37:43;36.72;;;14.98;;
76290;SDS011;65100;46.884;17.410;2023-03-01T07:40:09;35.90;;;14.57;;
76290;SDS011;65100;46.884;17.410;2023-03-01T07:42:36;37.13;;;15.07;;
76290;SDS011;65100;46.884;17.410;2023-03-01T07:45:01;38.47;;;14.87;;
76290;SDS011;65100;46.884;17.410;2023-03-01T07:47:27;35.85;;;15.10;;
76290;SDS011;65100;46.884;17.410;2023-03-01T07:49:53;35.73;;;14.83;;
76290;SDS011;65100;46.884;17.410;2023-03-01T07:52:18;36.38;;;15.27;;
76290;SDS011;65100;46.884;17.410;2023-03-01T07:54:44;38.53;;;16.13;;
76290;SDS011;65100;46.884;17.410;2023-03-01T07:57:09;44.07;;;16.80;;
76290;SDS011;65100;46.884;17.410;2023-03-01T07:59:36;40.35;;;15.77;;
76290;SDS011;65100;46.884;17.410;2023-03-01T08:02:01;34.23;;;13.93;;
76290;SDS011;65100;46.884;17.410;2023-03-01T08:04:26;34.25;;;13.27;;
76290;SDS011;65100;46.884;17.410;2023-03-01T08:09:38;34.75;;;14.00;;
76290;SDS011;65100;46.884;17.410;2023-03-01T08:12:24;37.08;;;14.32;;
76290;SDS011;65100;46.884;17.410;2023-03-01T08:14:52;34.92;;;13.85;;
76290;SDS011;65100;46.884;17.410;2023-03-01T08:17:18;32.00;;;12.77;;
76290;SDS011;65100;46.884;17.410;2023-03-01T08:19:43;38.10;;;15.27;;
76290;SDS011;65100;46.884;17.410;2023-03-01T08:22:09;33.80;;;13.33;;
76290;SDS011;65100;46.884;17.410;2023-03-01T08:24:35;35.30;;;14.45;;
76290;SDS011;65100;46.884;17.410;2023-03-01T08:27:00;36.67;;;14.53;;
76290;SDS011;65100;46.884;17.410;2023-03-01T08:29:27;33.92;;;13.15;;
76290;SDS011;65100;46.884;17.410;2023-03-01T08:31:55;33.67;;;12.63;;
76290;SDS011;65100;46.884;17.410;2023-03-01T08:34:20;37.42;;;14.00;;
76290;SDS011;65100;46.884;17.410;2023-03-01T08:36:46;37.23;;;13.40;;
76290;SDS011;65100;46.884;17.410;2023-03-01T08:39:13;36.45;;;14.50;;
76290;SDS011;65100;46.884;17.410;2023-03-01T08:41:40;36.67;;;15.02;;
76290;SDS011;65100;46.884;17.410;2023-03-01T08:44:06;33.57;;;13.33;;
76290;SDS011;65100;46.884;17.410;2023-03-01T08:46:33;35.90;;;13.98;;
76290;SDS011;65100;46.884;17.410;2023-03-01T08:49:03;37.60;;;14.45;;
76290;SDS011;65100;46.884;17.410;2023-03-01T08:51:29;39.25;;;13.55;;
76290;SDS011;65100;46.884;17.410;2023-03-01T08:53:57;34.13;;;13.18;;
76290;SDS011;65100;46.884;17.410;2023-03-01T08:56:23;38.20;;;14.50;;
76290;SDS011;65100;46.884;17.410;2023-03-01T08:58:48;39.27;;;14.63;;
76290;SDS011;65100;46.884;17.410;2023-03-01T09:01:17;35.72;;;15.57;;
76290;SDS011;65100;46.884;17.410;2023-03-01T09:03:44;34.57;;;13.93;;
76290;SDS011;65100;46.884;17.410;2023-03-01T09:06:10;40.15;;;16.38;;
76290;SDS011;65100;46.884;17.410;2023-03-01T09:08:37;37.75;;;15.50;;
76290;SDS011;65100;46.884;17.410;2023-03-01T09:11:04;36.15;;;15.80;;
76290;SDS011;65100;46.884;17.410;2023-03-01T09:13:31;34.35;;;14.38;;
76290;SDS011;65100;46.884;17.410;2023-03-01T09:15:57;37.47;;;14.97;;
76290;SDS011;65100;46.884;17.410;2023-03-01T09:18:23;38.88;;;15.85;;
76290;SDS011;65100;46.884;17.410;2023-03-01T09:20:49;38.20;;;16.03;;
76290;SDS011;65100;46.884;17.410;2023-03-01T09:23:14;35.40;;;14.90;;
76290;SDS011;65100;46.884;17.410;2023-03-01T09:25:40;37.70;;;15.73;;
76290;SDS011;65100;46.884;17.410;2023-03-01T09:28:05;35.85;;;16.05;;
76290;SDS011;65100;46.884;17.410;2023-03-01T09:30:31;36.23;;;15.70;;
76290;SDS011;65100;46.884;17.410;2023-03-01T09:32:56;39.43;;;15.97;;
76290;SDS011;65100;46.884;17.410;2023-03-01T09:35:22;37.00;;;15.23;;
76290;SDS011;65100;46.884;17.410;2023-03-01T09:37:48;35.55;;;15.80;;
76290;SDS011;65100;46.884;17.410;2023-03-01T09:40:19;35.70;;;13.37;;
76290;SDS011;65100;46.884;17.410;2023-03-01T09:43:31;36.03;;;14.32;;
76290;SDS011;65100;46.884;17.410;2023-03-01T09:45:59;31.77;;;13.65;;
76290;SDS011;65100;46.884;17.410;2023-03-01T09:48:31;36.20;;;14.60;;
76290;SDS011;65100;46.884;17.410;2023-03-01T09:51:02;32.92;;;13.82;;
76290;SDS011;65100;46.884;17.410;2023-03-01T09:53:33;35.40;;;14.50;;
76290;SDS011;65100;46.884;17.410;2023-03-01T09:56:14;37.08;;;14.50;;
76290;SDS011;65100;46.884;17.410;2023-03-01T09:58:48;35.78;;;14.57;;
76290;SDS011;65100;46.884;17.410;2023-03-01T10:01:27;37.10;;;14.80;;
76290;SDS011;65100;46.884;17.410;2023-03-01T10:07:05;39.87;;;15.77;;
76290;SDS011;65100;46.884;17.410;2023-03-01T10:09:36;37.10;;;14.88;;
76290;SDS011;65100;46.884;17.410;2023-03-01T10:12:06;38.15;;;14.65;;
76290;SDS011;65100;46.884;17.410;2023-03-01T10:14:36;38.90;;;16.38;;
76290;SDS011;65100;46.884;17.410;2023-03-01T10:19:50;40.57;;;15.93;;
76290;SDS011;65100;46.884;17.410;2023-03-01T10:24:53;39.93;;;15.13;;
76290;SDS011;65100;46.884;17.410;2023-03-01T10:27:24;39.35;;;15.77;;
76290;SDS011;65100;46.884;17.410;2023-03-01T10:29:57;40.08;;;16.20;;
76290;SDS011;65100;46.884;17.410;2023-03-01T10:32:36;38.40;;;15.98;;
76290;SDS011;65100;46.884;17.410;2023-03-01T10:35:14;41.73;;;17.23;;
76290;SDS011;65100;46.884;17.410;2023-03-01T10:38:03;39.05;;;15.52;;
76290;SDS011;65100;46.884;17.410;2023-03-01T10:40:27;37.75;;;15.45;;
76290;SDS011;65100;46.884;17.410;2023-03-01T10:42:53;40.73;;;16.60;;
76290;SDS011;65100;46.884;17.410;2023-03-01T10:50:45;38.13;;;15.67;;
76290;SDS011;65100;46.884;17.410;2023-03-01T10:58:34;36.70;;;15.63;;
76290;SDS011;65100;46.884;17.410;2023-03-01T11:01:05;35.75;;;14.93;;
76290;SDS011;65100;46.884;17.410;2023-03-01T11:06:30;36.03;;;15.15;;
76290;SDS011;65100;46.884;17.410;2023-03-01T11:08:55;34.60;;;15.02;;
76290;SDS011;65100;46.884;17.410;2023-03-01T11:19:04;32.22;;;13.93;;
76290;SDS011;65100;46.884;17.410;2023-03-01T11:21:41;33.83;;;14.57;;
76290;SDS011;65100;46.884;17.410;2023-03-01T11:24:11;32.77;;;14.50;;
76290;SDS011;65100;46.884;17.410;2023-03-01T11:26:40;33.47;;;14.20;;
76290;SDS011;65100;46.884;17.410;2023-03-01T11:29:13;37.63;;;15.93;;
76290;SDS011;65100;46.884;17.410;2023-03-01T11:31:46;31.85;;;13.65;;
76290;SDS011;65100;46.884;17.410;2023-03-01T11:34:35;31.45;;;13.60;;
76290;SDS011;65100;46.884;17.410;2023-03-01T11:37:02;31.43;;;14.23;;
76290;SDS011;65100;46.884;17.410;2023-03-01T11:39:37;34.58;;;14.88;;
76290;SDS011;65100;46.884;17.410;2023-03-01T11:42:15;34.75;;;15.50;;
76290;SDS011;65100;46.884;17.410;2023-03-01T11:44:46;35.88;;;15.73;;
76290;SDS011;65100;46.884;17.410;2023-03-01T11:50:03;35.03;;;14.90;;
76290;SDS011;65100;46.884;17.410;2023-03-01T11:52:42;34.70;;;15.20;;
76290;SDS011;65100;46.884;17.410;2023-03-01T11:55:25;34.13;;;15.50;;
76290;SDS011;65100;46.884;17.410;2023-03-01T12:22:35;35.67;;;16.13;;
76290;SDS011;65100;46.884;17.410;2023-03-01T12:28:27;34.25;;;16.02;;
76290;SDS011;65100;46.884;17.410;2023-03-01T12:36:55;36.00;;;16.10;;
76290;SDS011;65100;46.884;17.410;2023-03-01T12:51:19;38.67;;;16.70;;
76290;SDS011;65100;46.884;17.410;2023-03-01T12:53:49;35.55;;;16.45;;
76290;SDS011;65100;46.884;17.410;2023-03-01T12:56:23;34.20;;;16.33;;
76290;SDS011;65100;46.884;17.410;2023-03-01T12:59:02;35.30;;;15.80;;
76290;SDS011;65100;46.884;17.410;2023-03-01T13:09:39;35.43;;;15.43;;
76290;SDS011;65100;46.884;17.410;2023-03-01T13:17:52;35.53;;;15.50;;
76290;SDS011;65100;46.884;17.410;2023-03-01T13:20:20;32.85;;;15.93;;
76290;SDS011;65100;46.884;17.410;2023-03-01T13:22:49;38.73;;;16.97;;
76290;SDS011;65100;46.884;17.410;2023-03-01T13:30:59;35.30;;;15.45;;
76290;SDS011;65100;46.884;17.410;2023-03-01T13:35:51;39.10;;;15.93;;
76290;SDS011;65100;46.884;17.410;2023-03-01T13:41:02;36.03;;;15.55;;
76290;SDS011;65100;46.884;17.410;2023-03-01T13:43:29;33.78;;;15.73;;
76290;SDS011;65100;46.884;17.410;2023-03-01T13:45:57;34.63;;;15.65;;
76290;SDS011;65100;46.884;17.410;2023-03-01T13:48:28;36.83;;;15.93;;
76290;SDS011;65100;46.884;17.410;2023-03-01T13:50:59;36.58;;;15.68;;
76290;SDS011;65100;46.884;17.410;2023-03-01T13:53:30;32.85;;;14.82;;
76290;SDS011;65100;46.884;17.410;2023-03-01T13:56:00;34.58;;;15.05;;
76290;SDS011;65100;46.884;17.410;2023-03-01T14:01:01;34.53;;;14.97;;
76290;SDS011;65100;46.884;17.410;2023-03-01T14:03:29;37.50;;;16.05;;
76290;SDS011;65100;46.884;17.410;2023-03-01T14:05:58;41.30;;;16.88;;
76290;SDS011;65100;46.884;17.410;2023-03-01T14:08:27;38.72;;;17.33;;
76290;SDS011;65100;46.884;17.410;2023-03-01T14:16:10;35.15;;;16.08;;
76290;SDS011;65100;46.884;17.410;2023-03-01T14:19:14;36.15;;;15.90;;
76290;SDS011;65100;46.884;17.410;2023-03-01T14:21:44;38.92;;;17.33;;
76290;SDS011;65100;46.884;17.410;2023-03-01T14:24:22;38.58;;;18.05;;
76290;SDS011;65100;46.884;17.410;2023-03-01T14:26:49;38.17;;;17.03;;
76290;SDS011;65100;46.884;17.410;2023-03-01T14:29:35;40.53;;;18.10;;
76290;SDS011;65100;46.884;17.410;2023-03-01T14:32:48;41.08;;;17.70;;
76290;SDS011;65100;46.884;17.410;2023-03-01T14:34:55;41.83;;;17.75;;
76290;SDS011;65100;46.884;17.410;2023-03-01T14:37:27;44.33;;;18.58;;
76290;SDS011;65100;46.884;17.410;2023-03-01T14:39:55;38.00;;;17.57;;
76290;SDS011;65100;46.884;17.410;2023-03-01T14:42:23;38.35;;;16.00;;
76290;SDS011;65100;46.884;17.410;2023-03-01T14:44:53;37.88;;;16.65;;
76290;SDS011;65100;46.884;17.410;2023-03-01T14:47:30;40.00;;;17.67;;
76290;SDS011;65100;46.884;17.410;2023-03-01T14:50:21;38.08;;;16.48;;
76290;SDS011;65100;46.884;17.410;2023-03-01T14:52:57;37.47;;;16.60;;
76290;SDS011;65100;46.884;17.410;2023-03-01T14:58:08;38.80;;;16.35;;
76290;SDS011;65100;46.884;17.410;2023-03-01T15:00:37;39.95;;;18.30;;
76290;SDS011;65100;46.884;17.410;2023-03-01T15:03:06;38.63;;;17.77;;
76290;SDS011;65100;46.884;17.410;2023-03-01T15:05:38;37.70;;;16.13;;
76290;SDS011;65100;46.884;17.410;2023-03-01T15:08:05;39.20;;;16.17;;
76290;SDS011;65100;46.884;17.410;2023-03-01T15:10:32;41.03;;;18.48;;
76290;SDS011;65100;46.884;17.410;2023-03-01T15:13:10;39.42;;;18.02;;
76290;SDS011;65100;46.884;17.410;2023-03-01T15:15:43;40.63;;;17.75;;
76290;SDS011;65100;46.884;17.410;2023-03-01T15:18:21;41.50;;;18.67;;
76290;SDS011;65100;46.884;17.410;2023-03-01T15:20:51;43.65;;;18.63;;
76290;SDS011;65100;46.884;17.410;2023-03-01T15:23:25;38.47;;;17.35;;
76290;SDS011;65100;46.884;17.410;2023-03-01T15:25:52;42.33;;;19.35;;
76290;SDS011;65100;46.884;17.410;2023-03-01T15:28:29;41.75;;;18.75;;
76290;SDS011;65100;46.884;17.410;2023-03-01T15:31:43;37.17;;;16.57;;
76290;SDS011;65100;46.884;17.410;2023-03-01T15:33:48;39.05;;;16.92;;
76290;SDS011;65100;46.884;17.410;2023-03-01T15:36:33;38.22;;;17.23;;
76290;SDS011;65100;46.884;17.410;2023-03-01T15:39:05;35.20;;;16.15;;
76290;SDS011;65100;46.884;17.410;2023-03-01T15:42:12;37.73;;;16.03;;
76290;SDS011;65100;46.884;17.410;2023-03-01T15:47:52;39.50;;;17.08;;
76290;SDS011;65100;46.884;17.410;2023-03-01T15:50:37;36.45;;;17.02;;
76290;SDS011;65100;46.884;17.410;2023-03-01T15:53:05;38.05;;;16.17;;
76290;SDS011;65100;46.884;17.410;2023-03-01T15:55:36;36.13;;;16.33;;
76290;SDS011;65100;46.884;17.410;2023-03-01T16:00:44;34.60;;;15.43;;
76290;SDS011;65100;46.884;17.410;2023-03-01T16:03:11;34.67;;;15.57;;
76290;SDS011;65100;46.884;17.410;2023-03-01T16:05:37;35.20;;;15.52;;
76290;SDS011;65100;46.884;17.410;2023-03-01T16:08:04;37.55;;;16.67;;
76290;SDS011;65100;46.884;17.410;2023-03-01T16:10:31;34.38;;;15.68;;
76290;SDS011;65100;46.884;17.410;2023-03-01T16:12:57;35.30;;;16.13;;
76290;SDS011;65100;46.884;17.410;2023-03-01T16:15:24;34.17;;;15.87;;
76290;SDS011;65100;46.884;17.410;2023-03-01T16:17:49;35.55;;;15.90;;
76290;SDS011;65100;46.884;17.410;2023-03-01T16:20:15;36.40;;;15.65;;
76290;SDS011;65100;46.884;17.410;2023-03-01T16:22:42;35.70;;;15.90;;
76290;SDS011;65100;46.884;17.410;2023-03-01T16:25:09;33.60;;;15.23;;
76290;SDS011;65100;46.884;17.410;2023-03-01T16:27:41;36.92;;;16.30;;
76290;SDS011;65100;46.884;17.410;2023-03-01T16:30:07;38.17;;;18.05;;
76290;SDS011;65100;46.884;17.410;2023-03-01T16:32:37;33.13;;;16.10;;
76290;SDS011;65100;46.884;17.410;2023-03-01T16:35:07;33.53;;;15.07;;
76290;SDS011;65100;46.884;17.410;2023-03-01T16:37:34;35.15;;;16.60;;
76290;SDS011;65100;46.884;17.410;2023-03-01T16:40:00;33.58;;;16.38;;
76290;SDS011;65100;46.884;17.410;2023-03-01T16:42:26;34.10;;;16.05;;